Albert Lea, Minnesota
Current Conditions -  °F | °C
As of 4:35 AM on Thursday 23 Oct 2014 (Local Time) from KAEL Reporting Station
Moderate Rain Moderate Rain  
Wind Chill: 50°   Ceiling: 2300
Heat Index: 50°   Visibility: 7mi
Dew Point: 48°   Wind: 7mph
Humidity: 94%   Direction: 170°S
Pressure: 30.02"   Gusts: NA
Location:  43.65°N, 93.37°W
Report Text: KAEL 230935Z AUTO 17006KT 7SM RA BKN023 OVC033 10/09 A3002 RMK AO2 P0002
Loading
Personal Weather Stations






























Interactive Weather Map New forecast layout! Learn more

10-Day Weather Forecast

Advertisements
Track Severe Weather on mobile